Fedex MD11 at Mumbai on Jun 3rd 2020, overran runway on landing

Last Update: September 25, 2021 / 17:50:58 GMT/Zulu time

Bookmark this article
Incident Facts

Date of incident
Jun 3, 2020

Classification
Incident

Airline
Fedex

Flight number
FX-5033

Destination
Mumbai, India

Aircraft Registration
N583FE

ICAO Type Designator
MD11

Airport ICAO Code
VABB

A Fedex McDonnell Douglas MD-11, registration N583FE performing flight FX-5033 from Bangalore to Mumbai (India), landed on Mumbai's runway 14 at 12:14L (06:44Z) but overran the end of the runway by about 9 meters/30 feet. There were no injuries and no damage to the aircraft. The aircraft was quickly towed off the runway.

On Jun 24th 2020 the US NTSB reported, they were informed about an accident of a MD-11 tail number N583FE in Mumbai on Jun 3rd 2020, appointed an accredited representative and joined the investigation led by India's AAIB according to ICAO Annex 13 (editorial note: due to India's AAIB classification of an accident we have changed our coverage from incident to accident, too).

In an interim statement released in 2021 India's AIB reported the occurrence had been rated an incident, an investigation has been opened, however, due to the Corona Pandemic the AIB still awaits statements from the manufacturers, operator and the NTSB. The aircraft overshot the runway by 7.2 meters. There was no damage to the aircraft or any of the airport infrastructure. The aircraft was towed to the apron.

Metars:
VABB 030800Z 02021G31KT 2200 DZ FEW012 SCT018 FEW030CB OVC080 28/24 Q0994 TEMPO 1500 SHRA=
VABB 030730Z 02020G30KT 2200 -RA FEW012 SCT018 FEW030CB OVC080 27/24 Q0996 TEMPO 1500 SHRA=
VABB 030700Z 02013G23KT 2200 -RA FEW012 SCT018 FEW030CB OVC080 27/25 Q0996 TEMPO 1500 SHRA=
VABB 030630Z 03011G21KT 2200 -RA FEW012 SCT018 FEW030CB OVC080 27/25 Q0997 TEMPO 1500 SHRA=
VABB 030600Z 03010G20KT 2200 -RA FEW012 SCT018 FEW030CB OVC080 27/25 Q0998 TEMPO 1500 SHRA=
VABB 030530Z 03013G23KT 2200 -RA FEW012 SCT018 FEW030CB OVC080 27/25 Q0999 TEMPO 1500 SHRA=
VABB 030500Z 03010G20KT 2200 -RA FEW012 SCT018 FEW030CB OVC080 27/24 Q0999 TEMPO 1500 SHRA=
VABB 030430Z 04010G20KT 2200 -RA FEW012 SCT018 FEW030CB OVC080 27/24 Q0999 TEMPO 1500 SHRA=
VABB 030400Z 03008G18KT 2200 -RA FEW012 SCT018 FEW030CB OVC080 27/24 Q0999 TEMPO 1500 SHRA=
VABB 030330Z 04009G19KT 2200 -RA FEW012 SCT018 FEW030CB OVC080 27/24 Q1000 TEMPO 1500 SHRA=
VABB 030300Z 04007G17KT 2200 -RA FEW012 SCT018 FEW030CB OVC080 27/24 Q1000 TEMPO 1500 SHRA=
VABB 030230Z 04007G17KT 2200 -RA FEW012 SCT018 FEW030CB OVC080 26/24 Q1001 TEMPO 1500 SHRA=
VABB 030200Z 03007G17KT 2200 -RA FEW012 SCT018 FEW030CB OVC080 27/24 Q1001 TEMPO 1500 SHRA=
Aircraft Registration Data
Registration mark
N583FE
Country of Registration
United States
Date of Registration
Lbcn ljjepijpbpn Subscribe to unlock
TCDS Ident. No.
Manufacturer
MCDONNELL DOUGLAS
Aircraft Model / Type
MD-11F
Number of Seats
ICAO Aircraft Type
MD11
Year of Manufacture
Serial Number
Aircraft Address / Mode S Code (HEX)
Engine Count
Engine Manufacturer
Engine Model
CmncAifqccmng Subscribe to unlock
Engine Type
Pounds of Thrust
Main Owner
QgfpmggbecAjhbgmAiqlcbbpggdpqgiiAqkmklgbcni qAejmhckn e e cdjgfdqhdjegbbighbAhAfAlepbdckeeddqimjblp fjpkdhhpem Subscribe to unlock
Incident Facts

Date of incident
Jun 3, 2020

Classification
Incident

Airline
Fedex

Flight number
FX-5033

Destination
Mumbai, India

Aircraft Registration
N583FE

ICAO Type Designator
MD11

Airport ICAO Code
VABB

This article is published under license from Avherald.com. © of text by Avherald.com.
Article source

You can read 4 more free articles without a subscription.

Subscribe now and continue reading without any limits!

Are you a subscriber?
Login
Subscribe

Read unlimited articles and receive our daily update briefing. Gain better insights into what is happening in commercial aviation safety.

Free newsletter

Want to know more and stay ahead? Get our free weekly newsletter and join 5152 existing subscribers.

By subscribing, you accept our terms and conditions and confirm that you've read our privacy policy.

Send tip

Support AeroInside by sending a small tip amount.

Related articles

Newest articles

Subscribe today

Are you researching aviation incidents? Get access to AeroInside Insights, unlimited read access and receive the daily newsletter.

Pick your plan and subscribe

Partner

Blockaviation logo

A new way to document and demonstrate airworthiness compliance and aircraft value. Find out more.

Virtual Speech logo

ELITE Simulation Solutions is a leading global provider of Flight Simulation Training Devices, IFR training software as well as flight controls and related services. Find out more.

Get updates

Never miss an article from AeroInside. Subscribe to our free weekly newsletter and join 5152 existing subscribers.

By subscribing, you accept our terms and conditions and that you've read our privacy policy.

AeroInside Blog
Popular aircraft
Airbus A320
Boeing 737-800
Boeing 737-800 MAX
Popular airlines
American Airlines
United
Delta
Air Canada
Lufthansa
British Airways